sensor_id;sensor_type;location;lat;lon;timestamp;P1;durP1;ratioP1;P2;durP2;ratioP2
23082;SDS011;11709;52.420;10.538;2022-07-22T00:03:20;18.75;;;13.58;;
23082;SDS011;11709;52.420;10.538;2022-07-22T00:07:23;18.82;;;13.55;;
23082;SDS011;11709;52.420;10.538;2022-07-22T00:11:25;18.10;;;14.43;;
23082;SDS011;11709;52.420;10.538;2022-07-22T00:15:28;18.77;;;14.83;;
23082;SDS011;11709;52.420;10.538;2022-07-22T00:19:30;20.97;;;15.88;;
23082;SDS011;11709;52.420;10.538;2022-07-22T00:23:33;21.65;;;15.40;;
23082;SDS011;11709;52.420;10.538;2022-07-22T00:27:35;17.37;;;14.53;;
23082;SDS011;11709;52.420;10.538;2022-07-22T00:31:38;20.80;;;14.87;;
23082;SDS011;11709;52.420;10.538;2022-07-22T00:35:40;16.97;;;13.53;;
23082;SDS011;11709;52.420;10.538;2022-07-22T00:39:43;16.40;;;12.95;;
23082;SDS011;11709;52.420;10.538;2022-07-22T00:43:54;16.85;;;13.58;;
23082;SDS011;11709;52.420;10.538;2022-07-22T00:47:54;15.30;;;12.93;;
23082;SDS011;11709;52.420;10.538;2022-07-22T00:51:56;18.02;;;13.32;;
23082;SDS011;11709;52.420;10.538;2022-07-22T00:55:59;16.25;;;13.32;;
23082;SDS011;11709;52.420;10.538;2022-07-22T01:00:04;18.17;;;13.48;;
23082;SDS011;11709;52.420;10.538;2022-07-22T01:04:08;14.30;;;12.50;;
23082;SDS011;11709;52.420;10.538;2022-07-22T01:08:11;14.73;;;12.03;;
23082;SDS011;11709;52.420;10.538;2022-07-22T01:12:13;15.95;;;12.70;;
23082;SDS011;11709;52.420;10.538;2022-07-22T01:16:16;18.35;;;13.13;;
23082;SDS011;11709;52.420;10.538;2022-07-22T01:20:19;17.27;;;13.13;;
23082;SDS011;11709;52.420;10.538;2022-07-22T01:24:21;15.72;;;12.75;;
23082;SDS011;11709;52.420;10.538;2022-07-22T01:28:24;16.32;;;12.80;;
23082;SDS011;11709;52.420;10.538;2022-07-22T01:32:27;15.78;;;12.58;;
23082;SDS011;11709;52.420;10.538;2022-07-22T01:36:29;17.10;;;11.75;;
23082;SDS011;11709;52.420;10.538;2022-07-22T01:40:32;14.43;;;11.68;;
23082;SDS011;11709;52.420;10.538;2022-07-22T01:44:34;14.70;;;11.68;;
23082;SDS011;11709;52.420;10.538;2022-07-22T01:48:37;15.45;;;12.07;;
23082;SDS011;11709;52.420;10.538;2022-07-22T01:52:40;14.18;;;11.55;;
23082;SDS011;11709;52.420;10.538;2022-07-22T01:56:43;14.00;;;11.55;;
23082;SDS011;11709;52.420;10.538;2022-07-22T02:00:45;14.40;;;11.48;;
23082;SDS011;11709;52.420;10.538;2022-07-22T02:04:48;14.87;;;12.45;;
23082;SDS011;11709;52.420;10.538;2022-07-22T02:08:50;16.02;;;13.38;;
23082;SDS011;11709;52.420;10.538;2022-07-22T02:12:53;15.20;;;12.05;;
23082;SDS011;11709;52.420;10.538;2022-07-22T02:16:56;14.85;;;12.37;;
23082;SDS011;11709;52.420;10.538;2022-07-22T02:20:58;16.40;;;12.47;;
23082;SDS011;11709;52.420;10.538;2022-07-22T02:25:01;18.20;;;13.55;;
23082;SDS011;11709;52.420;10.538;2022-07-22T02:29:04;16.17;;;12.75;;
23082;SDS011;11709;52.420;10.538;2022-07-22T02:33:07;14.03;;;12.15;;
23082;SDS011;11709;52.420;10.538;2022-07-22T02:37:09;15.50;;;12.33;;
23082;SDS011;11709;52.420;10.538;2022-07-22T02:41:12;14.45;;;12.00;;
23082;SDS011;11709;52.420;10.538;2022-07-22T02:45:14;15.32;;;11.85;;
23082;SDS011;11709;52.420;10.538;2022-07-22T02:49:17;13.18;;;10.80;;
23082;SDS011;11709;52.420;10.538;2022-07-22T02:53:19;16.48;;;12.30;;
23082;SDS011;11709;52.420;10.538;2022-07-22T02:57:22;16.42;;;11.65;;
23082;SDS011;11709;52.420;10.538;2022-07-22T03:01:24;14.40;;;11.95;;
23082;SDS011;11709;52.420;10.538;2022-07-22T03:05:27;16.60;;;12.35;;
23082;SDS011;11709;52.420;10.538;2022-07-22T03:09:29;14.47;;;12.05;;
23082;SDS011;11709;52.420;10.538;2022-07-22T03:13:32;18.10;;;12.90;;
23082;SDS011;11709;52.420;10.538;2022-07-22T03:17:35;14.60;;;12.28;;
23082;SDS011;11709;52.420;10.538;2022-07-22T03:21:38;14.87;;;12.43;;
23082;SDS011;11709;52.420;10.538;2022-07-22T03:25:41;16.05;;;12.43;;
23082;SDS011;11709;52.420;10.538;2022-07-22T03:29:43;20.48;;;12.93;;
23082;SDS011;11709;52.420;10.538;2022-07-22T03:33:46;17.80;;;13.72;;
23082;SDS011;11709;52.420;10.538;2022-07-22T03:37:49;20.75;;;14.68;;
23082;SDS011;11709;52.420;10.538;2022-07-22T03:41:51;19.40;;;14.85;;
23082;SDS011;11709;52.420;10.538;2022-07-22T03:45:54;20.43;;;13.88;;
23082;SDS011;11709;52.420;10.538;2022-07-22T03:49:56;16.85;;;13.48;;
23082;SDS011;11709;52.420;10.538;2022-07-22T03:53:59;12.78;;;10.13;;
23082;SDS011;11709;52.420;10.538;2022-07-22T03:58:01;12.93;;;9.28;;
23082;SDS011;11709;52.420;10.538;2022-07-22T04:02:04;9.60;;;7.47;;
23082;SDS011;11709;52.420;10.538;2022-07-22T04:06:06;10.13;;;6.58;;
23082;SDS011;11709;52.420;10.538;2022-07-22T04:10:09;7.30;;;5.62;;
23082;SDS011;11709;52.420;10.538;2022-07-22T04:14:12;8.28;;;5.12;;
23082;SDS011;11709;52.420;10.538;2022-07-22T04:18:15;8.10;;;5.60;;
23082;SDS011;11709;52.420;10.538;2022-07-22T04:22:18;9.05;;;5.10;;
23082;SDS011;11709;52.420;10.538;2022-07-22T04:26:20;8.05;;;5.67;;
23082;SDS011;11709;52.420;10.538;2022-07-22T04:30:23;9.33;;;6.03;;
23082;SDS011;11709;52.420;10.538;2022-07-22T04:34:25;9.38;;;6.90;;
23082;SDS011;11709;52.420;10.538;2022-07-22T04:38:28;9.70;;;6.95;;
23082;SDS011;11709;52.420;10.538;2022-07-22T04:42:30;12.07;;;8.45;;
23082;SDS011;11709;52.420;10.538;2022-07-22T04:46:33;12.05;;;8.15;;
23082;SDS011;11709;52.420;10.538;2022-07-22T04:50:36;13.53;;;8.53;;
23082;SDS011;11709;52.420;10.538;2022-07-22T04:54:38;13.50;;;8.88;;
23082;SDS011;11709;52.420;10.538;2022-07-22T04:58:41;14.00;;;9.23;;
23082;SDS011;11709;52.420;10.538;2022-07-22T05:02:44;20.37;;;11.93;;
23082;SDS011;11709;52.420;10.538;2022-07-22T05:06:46;23.02;;;13.13;;
23082;SDS011;11709;52.420;10.538;2022-07-22T05:10:49;21.02;;;13.38;;
23082;SDS011;11709;52.420;10.538;2022-07-22T05:14:51;23.65;;;14.80;;
23082;SDS011;11709;52.420;10.538;2022-07-22T05:18:54;26.93;;;17.32;;
23082;SDS011;11709;52.420;10.538;2022-07-22T05:22:56;30.20;;;17.32;;
23082;SDS011;11709;52.420;10.538;2022-07-22T05:26:59;30.43;;;19.02;;
23082;SDS011;11709;52.420;10.538;2022-07-22T05:31:02;30.52;;;18.87;;
23082;SDS011;11709;52.420;10.538;2022-07-22T05:35:05;29.42;;;17.40;;
23082;SDS011;11709;52.420;10.538;2022-07-22T05:39:07;27.77;;;17.70;;
23082;SDS011;11709;52.420;10.538;2022-07-22T05:43:10;27.82;;;17.40;;
23082;SDS011;11709;52.420;10.538;2022-07-22T05:47:12;26.68;;;16.93;;
23082;SDS011;11709;52.420;10.538;2022-07-22T05:51:15;24.02;;;16.80;;
23082;SDS011;11709;52.420;10.538;2022-07-22T05:55:17;26.45;;;16.67;;
23082;SDS011;11709;52.420;10.538;2022-07-22T05:59:20;25.17;;;16.42;;
23082;SDS011;11709;52.420;10.538;2022-07-22T06:03:22;23.22;;;16.32;;
23082;SDS011;11709;52.420;10.538;2022-07-22T06:07:25;22.05;;;15.03;;
23082;SDS011;11709;52.420;10.538;2022-07-22T06:11:28;20.82;;;14.20;;
23082;SDS011;11709;52.420;10.538;2022-07-22T06:15:30;23.15;;;14.50;;
23082;SDS011;11709;52.420;10.538;2022-07-22T06:19:33;25.90;;;14.23;;
23082;SDS011;11709;52.420;10.538;2022-07-22T06:23:35;18.73;;;12.98;;
23082;SDS011;11709;52.420;10.538;2022-07-22T06:27:38;19.27;;;12.65;;
23082;SDS011;11709;52.420;10.538;2022-07-22T06:31:40;16.90;;;11.80;;
23082;SDS011;11709;52.420;10.538;2022-07-22T06:35:43;17.45;;;11.80;;
23082;SDS011;11709;52.420;10.538;2022-07-22T06:39:45;16.93;;;11.30;;
23082;SDS011;11709;52.420;10.538;2022-07-22T06:43:48;14.58;;;10.70;;
23082;SDS011;11709;52.420;10.538;2022-07-22T06:47:51;16.50;;;10.58;;
23082;SDS011;11709;52.420;10.538;2022-07-22T06:51:53;12.50;;;9.70;;
23082;SDS011;11709;52.420;10.538;2022-07-22T06:55:56;15.05;;;10.68;;
23082;SDS011;11709;52.420;10.538;2022-07-22T06:59:58;15.10;;;10.45;;
23082;SDS011;11709;52.420;10.538;2022-07-22T07:04:01;16.55;;;11.00;;
23082;SDS011;11709;52.420;10.538;2022-07-22T07:08:04;13.45;;;10.00;;
23082;SDS011;11709;52.420;10.538;2022-07-22T07:12:06;15.55;;;9.68;;
23082;SDS011;11709;52.420;10.538;2022-07-22T07:16:09;12.95;;;8.38;;
23082;SDS011;11709;52.420;10.538;2022-07-22T07:20:12;11.93;;;8.23;;
23082;SDS011;11709;52.420;10.538;2022-07-22T07:24:14;10.30;;;6.37;;
23082;SDS011;11709;52.420;10.538;2022-07-22T07:28:17;10.30;;;6.40;;
23082;SDS011;11709;52.420;10.538;2022-07-22T07:32:20;7.65;;;6.17;;
23082;SDS011;11709;52.420;10.538;2022-07-22T07:36:22;11.80;;;8.23;;
23082;SDS011;11709;52.420;10.538;2022-07-22T07:40:25;8.55;;;5.22;;
23082;SDS011;11709;52.420;10.538;2022-07-22T07:44:27;10.90;;;4.92;;
23082;SDS011;11709;52.420;10.538;2022-07-22T07:48:30;4.83;;;3.95;;
23082;SDS011;11709;52.420;10.538;2022-07-22T07:52:36;5.72;;;4.15;;
23082;SDS011;11709;52.420;10.538;2022-07-22T08:00:41;20.62;;;5.40;;
23082;SDS011;11709;52.420;10.538;2022-07-22T08:04:44;8.93;;;5.42;;
23082;SDS011;11709;52.420;10.538;2022-07-22T08:08:46;8.28;;;4.95;;
23082;SDS011;11709;52.420;10.538;2022-07-22T08:12:49;7.20;;;4.90;;
23082;SDS011;11709;52.420;10.538;2022-07-22T08:16:52;7.85;;;5.65;;
23082;SDS011;11709;52.420;10.538;2022-07-22T08:20:54;8.43;;;5.85;;
23082;SDS011;11709;52.420;10.538;2022-07-22T08:24:57;10.20;;;6.30;;
23082;SDS011;11709;52.420;10.538;2022-07-22T08:29:00;9.78;;;6.17;;
23082;SDS011;11709;52.420;10.538;2022-07-22T08:33:03;9.60;;;6.45;;
23082;SDS011;11709;52.420;10.538;2022-07-22T08:37:07;8.95;;;6.33;;
23082;SDS011;11709;52.420;10.538;2022-07-22T08:41:10;10.28;;;7.12;;
23082;SDS011;11709;52.420;10.538;2022-07-22T08:45:15;12.28;;;6.90;;
23082;SDS011;11709;52.420;10.538;2022-07-22T08:49:18;10.60;;;6.47;;
23082;SDS011;11709;52.420;10.538;2022-07-22T08:53:21;14.18;;;7.15;;
23082;SDS011;11709;52.420;10.538;2022-07-22T08:57:23;7.97;;;5.50;;
23082;SDS011;11709;52.420;10.538;2022-07-22T09:01:26;10.00;;;5.75;;
23082;SDS011;11709;52.420;10.538;2022-07-22T09:05:34;9.73;;;5.95;;
23082;SDS011;11709;52.420;10.538;2022-07-22T09:09:36;10.32;;;6.10;;
23082;SDS011;11709;52.420;10.538;2022-07-22T09:13:39;9.85;;;5.28;;
23082;SDS011;11709;52.420;10.538;2022-07-22T09:17:43;10.80;;;5.00;;
23082;SDS011;11709;52.420;10.538;2022-07-22T09:21:45;7.03;;;5.37;;
23082;SDS011;11709;52.420;10.538;2022-07-22T09:25:50;7.05;;;4.55;;
23082;SDS011;11709;52.420;10.538;2022-07-22T09:29:52;8.65;;;5.05;;
23082;SDS011;11709;52.420;10.538;2022-07-22T09:33:57;8.45;;;4.45;;
23082;SDS011;11709;52.420;10.538;2022-07-22T09:38:01;8.50;;;4.70;;
23082;SDS011;11709;52.420;10.538;2022-07-22T09:42:06;9.83;;;4.20;;
23082;SDS011;11709;52.420;10.538;2022-07-22T09:46:09;4.10;;;3.50;;
23082;SDS011;11709;52.420;10.538;2022-07-22T09:50:28;3.60;;;3.15;;
23082;SDS011;11709;52.420;10.538;2022-07-22T09:54:32;5.55;;;2.80;;
23082;SDS011;11709;52.420;10.538;2022-07-22T09:58:35;5.05;;;2.50;;
23082;SDS011;11709;52.420;10.538;2022-07-22T10:02:50;2.47;;;2.27;;
23082;SDS011;11709;52.420;10.538;2022-07-22T10:07:01;6.50;;;4.67;;
23082;SDS011;11709;52.420;10.538;2022-07-22T10:11:05;9.05;;;4.87;;
23082;SDS011;11709;52.420;10.538;2022-07-22T10:15:09;9.75;;;4.70;;
23082;SDS011;11709;52.420;10.538;2022-07-22T10:19:13;8.05;;;4.05;;
23082;SDS011;11709;52.420;10.538;2022-07-22T10:23:16;7.58;;;4.20;;
23082;SDS011;11709;52.420;10.538;2022-07-22T10:27:42;9.03;;;3.95;;
23082;SDS011;11709;52.420;10.538;2022-07-22T10:31:24;6.50;;;3.62;;
23082;SDS011;11709;52.420;10.538;2022-07-22T10:35:27;4.42;;;3.37;;
23082;SDS011;11709;52.420;10.538;2022-07-22T10:39:30;5.15;;;3.05;;
23082;SDS011;11709;52.420;10.538;2022-07-22T10:47:56;7.28;;;3.72;;
23082;SDS011;11709;52.420;10.538;2022-07-22T10:56:17;4.03;;;3.20;;
23082;SDS011;11709;52.420;10.538;2022-07-22T11:00:21;6.67;;;4.60;;
23082;SDS011;11709;52.420;10.538;2022-07-22T11:04:24;8.25;;;5.00;;
23082;SDS011;11709;52.420;10.538;2022-07-22T11:08:28;5.53;;;4.30;;
23082;SDS011;11709;52.420;10.538;2022-07-22T11:12:31;9.88;;;4.58;;
23082;SDS011;11709;52.420;10.538;2022-07-22T11:16:33;6.55;;;4.22;;
23082;SDS011;11709;52.420;10.538;2022-07-22T11:20:36;6.78;;;4.50;;
23082;SDS011;11709;52.420;10.538;2022-07-22T11:24:39;7.00;;;4.83;;
23082;SDS011;11709;52.420;10.538;2022-07-22T11:28:42;7.20;;;3.77;;
23082;SDS011;11709;52.420;10.538;2022-07-22T11:32:46;8.55;;;4.37;;
23082;SDS011;11709;52.420;10.538;2022-07-22T11:36:50;7.92;;;3.90;;
23082;SDS011;11709;52.420;10.538;2022-07-22T11:40:54;5.62;;;2.98;;
23082;SDS011;11709;52.420;10.538;2022-07-22T11:44:57;6.60;;;2.98;;
23082;SDS011;11709;52.420;10.538;2022-07-22T11:49:00;8.88;;;3.25;;
23082;SDS011;11709;52.420;10.538;2022-07-22T11:53:02;7.30;;;3.52;;
23082;SDS011;11709;52.420;10.538;2022-07-22T11:57:06;8.83;;;4.05;;
23082;SDS011;11709;52.420;10.538;2022-07-22T12:01:10;9.68;;;4.33;;
23082;SDS011;11709;52.420;10.538;2022-07-22T12:05:19;10.95;;;4.60;;
23082;SDS011;11709;52.420;10.538;2022-07-22T12:09:25;11.03;;;4.75;;
23082;SDS011;11709;52.420;10.538;2022-07-22T12:13:31;9.15;;;4.62;;
23082;SDS011;11709;52.420;10.538;2022-07-22T12:17:34;8.75;;;4.80;;
23082;SDS011;11709;52.420;10.538;2022-07-22T12:21:50;8.08;;;5.40;;
23082;SDS011;11709;52.420;10.538;2022-07-22T12:25:57;11.40;;;4.75;;
23082;SDS011;11709;52.420;10.538;2022-07-22T12:30:10;11.78;;;5.62;;
23082;SDS011;11709;52.420;10.538;2022-07-22T12:34:07;13.22;;;5.72;;
23082;SDS011;11709;52.420;10.538;2022-07-22T12:38:10;8.43;;;5.40;;
23082;SDS011;11709;52.420;10.538;2022-07-22T12:42:16;10.80;;;5.37;;
23082;SDS011;11709;52.420;10.538;2022-07-22T12:46:19;12.27;;;6.07;;
23082;SDS011;11709;52.420;10.538;2022-07-22T12:50:29;9.20;;;5.67;;
23082;SDS011;11709;52.420;10.538;2022-07-22T12:54:34;10.03;;;5.15;;
23082;SDS011;11709;52.420;10.538;2022-07-22T12:58:37;8.25;;;4.45;;
23082;SDS011;11709;52.420;10.538;2022-07-22T13:02:41;6.30;;;4.22;;
23082;SDS011;11709;52.420;10.538;2022-07-22T13:06:43;10.82;;;4.20;;
23082;SDS011;11709;52.420;10.538;2022-07-22T13:10:46;8.13;;;4.08;;
23082;SDS011;11709;52.420;10.538;2022-07-22T13:14:48;8.00;;;4.17;;
23082;SDS011;11709;52.420;10.538;2022-07-22T13:18:51;8.33;;;4.90;;
23082;SDS011;11709;52.420;10.538;2022-07-22T13:22:54;6.00;;;5.08;;
23082;SDS011;11709;52.420;10.538;2022-07-22T13:26:56;10.40;;;4.95;;
23082;SDS011;11709;52.420;10.538;2022-07-22T13:30:59;7.92;;;4.75;;
23082;SDS011;11709;52.420;10.538;2022-07-22T13:35:01;6.70;;;4.10;;
23082;SDS011;11709;52.420;10.538;2022-07-22T13:39:04;8.25;;;4.83;;
23082;SDS011;11709;52.420;10.538;2022-07-22T13:43:06;7.03;;;5.78;;
23082;SDS011;11709;52.420;10.538;2022-07-22T13:47:09;6.80;;;5.10;;
23082;SDS011;11709;52.420;10.538;2022-07-22T13:51:12;11.25;;;5.50;;
23082;SDS011;11709;52.420;10.538;2022-07-22T13:55:15;14.65;;;5.95;;
23082;SDS011;11709;52.420;10.538;2022-07-22T13:59:17;9.50;;;6.33;;
23082;SDS011;11709;52.420;10.538;2022-07-22T14:03:20;11.10;;;5.92;;
23082;SDS011;11709;52.420;10.538;2022-07-22T14:07:22;11.57;;;6.12;;
23082;SDS011;11709;52.420;10.538;2022-07-22T14:11:25;6.97;;;5.35;;
23082;SDS011;11709;52.420;10.538;2022-07-22T14:15:27;10.68;;;5.03;;
23082;SDS011;11709;52.420;10.538;2022-07-22T14:19:30;10.58;;;5.20;;
23082;SDS011;11709;52.420;10.538;2022-07-22T14:23:33;7.25;;;5.08;;
23082;SDS011;11709;52.420;10.538;2022-07-22T14:27:35;8.80;;;5.37;;
23082;SDS011;11709;52.420;10.538;2022-07-22T14:31:38;8.63;;;5.05;;
23082;SDS011;11709;52.420;10.538;2022-07-22T14:35:40;12.78;;;6.08;;
23082;SDS011;11709;52.420;10.538;2022-07-22T14:39:43;9.03;;;5.80;;
23082;SDS011;11709;52.420;10.538;2022-07-22T14:43:45;11.43;;;5.62;;
23082;SDS011;11709;52.420;10.538;2022-07-22T14:47:48;11.40;;;5.25;;
23082;SDS011;11709;52.420;10.538;2022-07-22T14:51:51;10.55;;;5.90;;
23082;SDS011;11709;52.420;10.538;2022-07-22T14:55:53;8.30;;;4.67;;
23082;SDS011;11709;52.420;10.538;2022-07-22T14:59:56;13.08;;;5.35;;
23082;SDS011;11709;52.420;10.538;2022-07-22T15:03:58;13.38;;;6.25;;
23082;SDS011;11709;52.420;10.538;2022-07-22T15:08:01;19.75;;;6.10;;
23082;SDS011;11709;52.420;10.538;2022-07-22T15:12:03;10.75;;;5.83;;
23082;SDS011;11709;52.420;10.538;2022-07-22T15:16:06;10.80;;;5.72;;
23082;SDS011;11709;52.420;10.538;2022-07-22T15:20:09;9.13;;;5.65;;
23082;SDS011;11709;52.420;10.538;2022-07-22T15:24:12;10.75;;;5.53;;
23082;SDS011;11709;52.420;10.538;2022-07-22T15:28:14;13.20;;;6.08;;
23082;SDS011;11709;52.420;10.538;2022-07-22T15:32:17;14.45;;;6.92;;
23082;SDS011;11709;52.420;10.538;2022-07-22T15:36:20;12.13;;;6.22;;
23082;SDS011;11709;52.420;10.538;2022-07-22T15:40:22;9.80;;;6.47;;
23082;SDS011;11709;52.420;10.538;2022-07-22T15:44:25;10.98;;;6.35;;
23082;SDS011;11709;52.420;10.538;2022-07-22T15:48:28;10.80;;;6.37;;
23082;SDS011;11709;52.420;10.538;2022-07-22T15:52:30;10.88;;;6.28;;
23082;SDS011;11709;52.420;10.538;2022-07-22T15:56:33;8.80;;;5.35;;
23082;SDS011;11709;52.420;10.538;2022-07-22T16:00:36;11.28;;;5.97;;
23082;SDS011;11709;52.420;10.538;2022-07-22T16:04:38;11.03;;;5.55;;
23082;SDS011;11709;52.420;10.538;2022-07-22T16:08:41;7.97;;;5.70;;
23082;SDS011;11709;52.420;10.538;2022-07-22T16:12:43;11.90;;;6.70;;
23082;SDS011;11709;52.420;10.538;2022-07-22T16:16:46;16.50;;;6.42;;
23082;SDS011;11709;52.420;10.538;2022-07-22T16:20:48;9.00;;;5.95;;
23082;SDS011;11709;52.420;10.538;2022-07-22T16:24:51;11.63;;;5.50;;
23082;SDS011;11709;52.420;10.538;2022-07-22T16:28:53;11.18;;;6.03;;
23082;SDS011;11709;52.420;10.538;2022-07-22T16:32:56;9.00;;;6.10;;
23082;SDS011;11709;52.420;10.538;2022-07-22T16:36:59;12.45;;;6.95;;
23082;SDS011;11709;52.420;10.538;2022-07-22T16:41:01;12.98;;;7.25;;
23082;SDS011;11709;52.420;10.538;2022-07-22T16:45:04;9.23;;;6.95;;
23082;SDS011;11709;52.420;10.538;2022-07-22T16:49:07;14.98;;;6.28;;
23082;SDS011;11709;52.420;10.538;2022-07-22T16:53:10;10.28;;;5.87;;
23082;SDS011;11709;52.420;10.538;2022-07-22T16:57:12;11.75;;;6.58;;
23082;SDS011;11709;52.420;10.538;2022-07-22T17:01:15;10.10;;;5.80;;
23082;SDS011;11709;52.420;10.538;2022-07-22T17:05:18;11.43;;;6.17;;
23082;SDS011;11709;52.420;10.538;2022-07-22T17:09:20;11.57;;;5.90;;
23082;SDS011;11709;52.420;10.538;2022-07-22T17:13:23;10.40;;;6.17;;
23082;SDS011;11709;52.420;10.538;2022-07-22T17:17:27;9.20;;;6.15;;
23082;SDS011;11709;52.420;10.538;2022-07-22T17:21:29;9.30;;;6.28;;
23082;SDS011;11709;52.420;10.538;2022-07-22T17:25:32;9.18;;;5.45;;
23082;SDS011;11709;52.420;10.538;2022-07-22T17:29:34;10.35;;;5.87;;
23082;SDS011;11709;52.420;10.538;2022-07-22T17:33:37;15.83;;;7.10;;
23082;SDS011;11709;52.420;10.538;2022-07-22T17:37:39;11.60;;;6.72;;
23082;SDS011;11709;52.420;10.538;2022-07-22T17:41:42;14.25;;;8.13;;
23082;SDS011;11709;52.420;10.538;2022-07-22T17:45:45;11.63;;;5.92;;
23082;SDS011;11709;52.420;10.538;2022-07-22T17:49:47;11.65;;;6.53;;
23082;SDS011;11709;52.420;10.538;2022-07-22T17:53:50;9.43;;;6.30;;
23082;SDS011;11709;52.420;10.538;2022-07-22T17:57:52;9.90;;;6.15;;
23082;SDS011;11709;52.420;10.538;2022-07-22T18:01:55;9.08;;;6.00;;
23082;SDS011;11709;52.420;10.538;2022-07-22T18:05:57;13.50;;;5.90;;
23082;SDS011;11709;52.420;10.538;2022-07-22T18:10:00;14.07;;;6.37;;
23082;SDS011;11709;52.420;10.538;2022-07-22T18:14:02;8.08;;;5.78;;
23082;SDS011;11709;52.420;10.538;2022-07-22T18:18:05;11.15;;;5.28;;
23082;SDS011;11709;52.420;10.538;2022-07-22T18:22:07;11.20;;;5.62;;
23082;SDS011;11709;52.420;10.538;2022-07-22T18:26:10;7.33;;;5.33;;
23082;SDS011;11709;52.420;10.538;2022-07-22T18:30:13;7.60;;;5.37;;
23082;SDS011;11709;52.420;10.538;2022-07-22T18:34:15;8.65;;;5.60;;
23082;SDS011;11709;52.420;10.538;2022-07-22T18:38:17;9.38;;;4.67;;
23082;SDS011;11709;52.420;10.538;2022-07-22T18:42:20;9.98;;;5.05;;
23082;SDS011;11709;52.420;10.538;2022-07-22T18:46:23;9.48;;;5.12;;
23082;SDS011;11709;52.420;10.538;2022-07-22T18:50:25;8.35;;;5.37;;
23082;SDS011;11709;52.420;10.538;2022-07-22T18:54:29;12.98;;;5.40;;
23082;SDS011;11709;52.420;10.538;2022-07-22T18:58:32;9.53;;;4.87;;
23082;SDS011;11709;52.420;10.538;2022-07-22T19:02:35;9.25;;;4.87;;
23082;SDS011;11709;52.420;10.538;2022-07-22T19:06:37;7.33;;;4.60;;
23082;SDS011;11709;52.420;10.538;2022-07-22T19:10:40;8.68;;;5.30;;
23082;SDS011;11709;52.420;10.538;2022-07-22T19:14:42;9.28;;;5.05;;
23082;SDS011;11709;52.420;10.538;2022-07-22T19:18:45;7.10;;;4.50;;
23082;SDS011;11709;52.420;10.538;2022-07-22T19:22:47;9.20;;;5.70;;
23082;SDS011;11709;52.420;10.538;2022-07-22T19:26:50;10.23;;;5.60;;
23082;SDS011;11709;52.420;10.538;2022-07-22T19:30:52;9.53;;;5.40;;
23082;SDS011;11709;52.420;10.538;2022-07-22T19:34:55;8.73;;;5.05;;
23082;SDS011;11709;52.420;10.538;2022-07-22T19:38:57;8.28;;;4.60;;
23082;SDS011;11709;52.420;10.538;2022-07-22T19:43:00;7.22;;;4.75;;
23082;SDS011;11709;52.420;10.538;2022-07-22T19:47:03;7.67;;;5.37;;
23082;SDS011;11709;52.420;10.538;2022-07-22T19:51:05;9.80;;;5.35;;
23082;SDS011;11709;52.420;10.538;2022-07-22T19:55:08;10.82;;;5.95;;
23082;SDS011;11709;52.420;10.538;2022-07-22T19:59:11;8.13;;;5.58;;
23082;SDS011;11709;52.420;10.538;2022-07-22T20:03:14;9.05;;;5.70;;
23082;SDS011;11709;52.420;10.538;2022-07-22T20:07:16;11.30;;;5.72;;
23082;SDS011;11709;52.420;10.538;2022-07-22T20:11:19;9.65;;;5.12;;
23082;SDS011;11709;52.420;10.538;2022-07-22T20:15:22;13.72;;;6.28;;
23082;SDS011;11709;52.420;10.538;2022-07-22T20:19:25;8.73;;;5.33;;
23082;SDS011;11709;52.420;10.538;2022-07-22T20:23:27;9.05;;;5.55;;
23082;SDS011;11709;52.420;10.538;2022-07-22T20:27:30;9.15;;;5.12;;
23082;SDS011;11709;52.420;10.538;2022-07-22T20:31:32;8.00;;;5.60;;
23082;SDS011;11709;52.420;10.538;2022-07-22T20:35:35;13.45;;;5.97;;
23082;SDS011;11709;52.420;10.538;2022-07-22T20:39:38;7.80;;;5.12;;
23082;SDS011;11709;52.420;10.538;2022-07-22T20:43:40;8.68;;;5.85;;
23082;SDS011;11709;52.420;10.538;2022-07-22T20:47:43;9.68;;;6.33;;
23082;SDS011;11709;52.420;10.538;2022-07-22T20:51:45;9.25;;;5.35;;
23082;SDS011;11709;52.420;10.538;2022-07-22T20:55:48;10.35;;;6.20;;
23082;SDS011;11709;52.420;10.538;2022-07-22T20:59:50;10.40;;;6.05;;
23082;SDS011;11709;52.420;10.538;2022-07-22T21:03:53;13.70;;;5.67;;
23082;SDS011;11709;52.420;10.538;2022-07-22T21:07:55;14.23;;;6.25;;
23082;SDS011;11709;52.420;10.538;2022-07-22T21:11:58;12.58;;;6.25;;
23082;SDS011;11709;52.420;10.538;2022-07-22T21:16:01;11.08;;;5.62;;
23082;SDS011;11709;52.420;10.538;2022-07-22T21:20:03;16.25;;;6.85;;
23082;SDS011;11709;52.420;10.538;2022-07-22T21:24:06;10.63;;;5.90;;
23082;SDS011;11709;52.420;10.538;2022-07-22T21:28:09;11.08;;;6.15;;
23082;SDS011;11709;52.420;10.538;2022-07-22T21:32:13;12.37;;;5.97;;
23082;SDS011;11709;52.420;10.538;2022-07-22T21:36:17;12.60;;;6.40;;
23082;SDS011;11709;52.420;10.538;2022-07-22T21:40:20;13.62;;;6.42;;
23082;SDS011;11709;52.420;10.538;2022-07-22T21:44:24;10.08;;;6.40;;
23082;SDS011;11709;52.420;10.538;2022-07-22T21:48:27;14.35;;;6.08;;
23082;SDS011;11709;52.420;10.538;2022-07-22T21:52:30;10.25;;;6.22;;
23082;SDS011;11709;52.420;10.538;2022-07-22T21:56:33;11.40;;;6.72;;
23082;SDS011;11709;52.420;10.538;2022-07-22T22:00:53;12.00;;;6.10;;
23082;SDS011;11709;52.420;10.538;2022-07-22T22:04:55;15.35;;;6.70;;
23082;SDS011;11709;52.420;10.538;2022-07-22T22:08:58;15.88;;;6.53;;
23082;SDS011;11709;52.420;10.538;2022-07-22T22:13:00;10.45;;;6.53;;
23082;SDS011;11709;52.420;10.538;2022-07-22T22:17:03;7.75;;;6.53;;
23082;SDS011;11709;52.420;10.538;2022-07-22T22:21:05;10.80;;;6.45;;
23082;SDS011;11709;52.420;10.538;2022-07-22T22:25:08;10.93;;;6.95;;
23082;SDS011;11709;52.420;10.538;2022-07-22T22:29:12;7.95;;;6.45;;
23082;SDS011;11709;52.420;10.538;2022-07-22T22:33:15;11.03;;;6.42;;
23082;SDS011;11709;52.420;10.538;2022-07-22T22:37:17;13.95;;;7.10;;
23082;SDS011;11709;52.420;10.538;2022-07-22T22:41:20;14.13;;;7.45;;
23082;SDS011;11709;52.420;10.538;2022-07-22T22:45:22;14.83;;;7.00;;
23082;SDS011;11709;52.420;10.538;2022-07-22T22:49:25;18.62;;;6.78;;
23082;SDS011;11709;52.420;10.538;2022-07-22T22:53:27;23.87;;;6.72;;
23082;SDS011;11709;52.420;10.538;2022-07-22T22:57:30;20.77;;;7.90;;
23082;SDS011;11709;52.420;10.538;2022-07-22T23:01:33;15.90;;;7.08;;
23082;SDS011;11709;52.420;10.538;2022-07-22T23:05:35;12.73;;;7.25;;
23082;SDS011;11709;52.420;10.538;2022-07-22T23:09:38;9.93;;;6.55;;
23082;SDS011;11709;52.420;10.538;2022-07-22T23:13:41;14.47;;;7.70;;
23082;SDS011;11709;52.420;10.538;2022-07-22T23:17:43;19.10;;;10.32;;
23082;SDS011;11709;52.420;10.538;2022-07-22T23:21:46;13.20;;;7.90;;
23082;SDS011;11709;52.420;10.538;2022-07-22T23:25:49;14.15;;;7.58;;
23082;SDS011;11709;52.420;10.538;2022-07-22T23:29:53;13.38;;;7.45;;
23082;SDS011;11709;52.420;10.538;2022-07-22T23:33:55;12.20;;;7.90;;
23082;SDS011;11709;52.420;10.538;2022-07-22T23:37:58;15.00;;;8.08;;
23082;SDS011;11709;52.420;10.538;2022-07-22T23:42:04;10.87;;;7.50;;
23082;SDS011;11709;52.420;10.538;2022-07-22T23:46:06;15.08;;;7.50;;
23082;SDS011;11709;52.420;10.538;2022-07-22T23:50:09;15.13;;;7.47;;
23082;SDS011;11709;52.420;10.538;2022-07-22T23:54:11;12.13;;;6.90;;
23082;SDS011;11709;52.420;10.538;2022-07-22T23:58:14;13.55;;;7.50;;
